Terminal Aerodrome Forecast
Issued by NWS

Home | Current Version | Previous Version | Text Only | Print | Product List | Glossary On
Versions: 1 2 3 4 5 6 7 8 9 10 11 12 13 14 15 16 17 18 19 20 21 22 23
000
FTUS43 KAPX 021000 AAA
TAFTVC
TAF AMD
KTVC 021024Z 0210/0306 10008KT P6SM -SHRA SCT010 OVC040
     FM021600 15008KT 6SM BR OVC012
     FM030200 14005KT 1SM RA BR OVC004=

USA.gov is the U.S. government's official web portal to all federal, state and local government web resources and services.